Time;durP1;ratioP1;P1;durP2;ratioP2;P2;SDS_P1;SDS_P2;PMS_P1;PMS_P2;Temp;Humidity;BMP_temperature;BMP_pressure;BME280_temperature;BME280_humidity;BME280_pressure;Samples;Min_cycle;Max_cycle;Signal;HPM_P1;HPM_P2
2021/07/13 00:00:56;;;;;;;;;;;18.70;99.90;;;;;;5032021;28;19925;-62
2021/07/13 00:03:45;;;;;;;;;;;18.70;99.90;;;;;;5036504;28;20019;-63
2021/07/13 00:06:33;;;;;;;;;;;18.60;99.90;;;;;;5032919;28;19925;-63
2021/07/13 00:09:22;;;;;;;;;;;18.60;99.90;;;;;;5034492;28;20416;-62
2021/07/13 00:12:11;;;;;;;;;;;18.50;99.90;;;;;;5029862;28;19925;-62
2021/07/13 00:15:01;;;;;;;;;;;18.40;99.90;;;;;;5031493;28;19929;-62
2021/07/13 00:17:50;;;;;;;;;;;18.40;99.90;;;;;;5029012;28;20396;-62
2021/07/13 00:20:39;;;;;;;;;;;18.30;99.90;;;;;;5032368;28;19925;-66
2021/07/13 00:23:28;;;;;;;;;;;18.30;99.90;;;;;;5032700;28;20012;-62
2021/07/13 00:26:17;;;;;;;;;;;18.30;99.90;;;;;;5031938;28;19936;-62
2021/07/13 00:29:06;;;;;;;;;;;18.30;99.90;;;;;;5031366;28;19929;-62
2021/07/13 00:31:56;;;;;;;;;;;18.30;99.90;;;;;;5024434;28;20024;-62
2021/07/13 00:34:45;;;;;;;;;;;18.30;99.90;;;;;;5030866;28;19929;-62
2021/07/13 00:37:33;;;;;;;;;;;18.20;99.90;;;;;;5032089;28;19925;-62
2021/07/13 00:40:22;;;;;;;;;;;18.10;99.90;;;;;;5032393;28;20396;-62
2021/07/13 00:43:11;;;;;;;;;;;18.10;99.90;;;;;;5034315;28;19925;-62
2021/07/13 00:46:03;;;;;;;;;;;18.00;99.90;;;;;;5025164;28;19925;-63
2021/07/13 00:48:53;;;;;;;;;;;17.90;99.90;;;;;;5030836;28;19925;-62
2021/07/13 00:51:42;;;;;;;;;;;17.90;99.90;;;;;;5031802;28;20483;-62
2021/07/13 00:54:31;;;;;;;;;;;17.80;99.90;;;;;;5031764;28;20051;-62
2021/07/13 00:57:20;;;;;;;;;;;17.80;99.90;;;;;;5034238;28;19948;-63
2021/07/13 01:00:34;;;;;;;;;;;17.80;99.90;;;;;;5027795;28;19932;-62
2021/07/13 01:03:22;;;;;;;;;;;17.80;99.90;;;;;;5010233;28;20365;-63
2021/07/13 01:06:13;;;;;;;;;;;17.80;99.90;;;;;;5011180;28;20012;-62
2021/07/13 01:09:06;;;;;;;;;;;17.70;99.90;;;;;;5011116;28;19939;-62
2021/07/13 01:11:58;;;;;;;;;;;17.70;99.90;;;;;;5006727;28;19925;-62
2021/07/13 01:14:51;;;;;;;;;;;17.60;99.90;;;;;;5010425;28;19926;-62
2021/07/13 01:21:30;;;;;;;;;;;17.60;99.90;;;;;;5013335;28;19998;-64
2021/07/13 01:24:31;;;;;;;;;;;17.70;99.90;;;;;;5012054;28;19949;-64
2021/07/13 01:27:30;;;;;;;;;;;17.70;99.90;;;;;;5014793;28;19926;-62
2021/07/13 01:30:22;;;;;;;;;;;17.70;99.90;;;;;;5007791;28;19925;-63
2021/07/13 01:33:12;;;;;;;;;;;17.60;99.90;;;;;;5013005;28;20332;-62
2021/07/13 01:36:04;;;;;;;;;;;17.60;99.90;;;;;;5010626;28;19952;-62
2021/07/13 01:38:53;;;;;;;;;;;17.60;99.90;;;;;;5005658;28;19932;-62
2021/07/13 01:41:43;;;;;;;;;;;17.50;99.90;;;;;;5011364;28;20721;-65
2021/07/13 01:44:33;;;;;;;;;;;17.60;99.90;;;;;;5010406;28;19940;-62
2021/07/13 01:47:24;;;;;;;;;;;17.50;99.90;;;;;;5022962;28;20281;-64
2021/07/13 01:50:13;;;;;;;;;;;17.50;99.90;;;;;;5032441;28;19932;-65
2021/07/13 01:53:02;;;;;;;;;;;17.60;99.90;;;;;;5030444;28;19932;-63
2021/07/13 01:55:53;;;;;;;;;;;17.60;99.90;;;;;;5030511;28;19976;-63
2021/07/13 01:58:42;;;;;;;;;;;17.70;99.90;;;;;;5031887;28;19932;-63
2021/07/13 02:01:32;;;;;;;;;;;17.80;99.90;;;;;;5019469;28;20459;-62
2021/07/13 02:04:26;;;;;;;;;;;17.90;99.90;;;;;;5013106;28;19936;-62
2021/07/13 02:07:15;;;;;;;;;;;17.90;99.90;;;;;;5014002;28;19936;-62
2021/07/13 02:10:05;;;;;;;;;;;18.00;99.90;;;;;;5014030;28;19944;-62
2021/07/13 02:12:53;;;;;;;;;;;18.10;99.90;;;;;;5013319;28;19933;-61
2021/07/13 02:15:43;;;;;;;;;;;18.20;99.90;;;;;;5012845;28;19932;-62
2021/07/13 02:18:31;;;;;;;;;;;18.30;99.90;;;;;;5033573;28;19925;-62
2021/07/13 02:21:21;;;;;;;;;;;18.30;99.90;;;;;;5032254;28;19925;-63
2021/07/13 02:24:11;;;;;;;;;;;18.30;99.90;;;;;;5033292;28;20281;-64
2021/07/13 02:27:01;;;;;;;;;;;18.30;99.90;;;;;;5033308;28;19931;-63
2021/07/13 02:29:51;;;;;;;;;;;18.40;99.90;;;;;;5032555;28;19948;-63
2021/07/13 02:32:46;;;;;;;;;;;18.40;99.90;;;;;;5015387;28;19928;-62
2021/07/13 02:35:36;;;;;;;;;;;18.50;99.90;;;;;;5015834;28;19933;-62
2021/07/13 02:38:49;;;;;;;;;;;18.50;99.90;;;;;;5038784;28;19933;-62
2021/07/13 02:41:40;;;;;;;;;;;18.50;99.90;;;;;;5018459;28;20308;-62
2021/07/13 02:44:30;;;;;;;;;;;18.50;99.90;;;;;;5017132;28;20044;-62
2021/07/13 02:47:19;;;;;;;;;;;18.50;99.90;;;;;;5016280;28;20074;-62
2021/07/13 02:50:08;;;;;;;;;;;18.40;99.90;;;;;;5032658;28;20010;-64
2021/07/13 02:52:58;;;;;;;;;;;18.30;99.90;;;;;;5032945;28;19925;-62
2021/07/13 02:55:47;;;;;;;;;;;18.10;99.90;;;;;;5022167;28;19926;-62
2021/07/13 02:58:38;;;;;;;;;;;18.10;99.90;;;;;;5033545;28;19929;-63
2021/07/13 03:01:28;;;;;;;;;;;18.00;99.90;;;;;;5018500;28;19925;-62
2021/07/13 03:04:17;;;;;;;;;;;17.90;99.90;;;;;;5051152;28;19925;-62
2021/07/13 03:07:06;;;;;;;;;;;17.80;99.90;;;;;;5031190;28;19933;-62
2021/07/13 03:09:55;;;;;;;;;;;17.80;99.90;;;;;;5013801;28;20453;-62
2021/07/13 03:12:44;;;;;;;;;;;17.70;99.90;;;;;;5025199;28;20369;-62
2021/07/13 03:15:35;;;;;;;;;;;17.70;99.90;;;;;;5018479;28;19992;-63
2021/07/13 03:18:24;;;;;;;;;;;17.80;99.90;;;;;;5017443;28;19933;-62
2021/07/13 03:21:13;;;;;;;;;;;17.80;99.90;;;;;;5011468;28;20404;-62
2021/07/13 03:24:04;;;;;;;;;;;17.80;99.90;;;;;;5012711;28;20004;-62
2021/07/13 03:26:53;;;;;;;;;;;17.80;99.90;;;;;;5011691;28;19933;-62
2021/07/13 03:29:42;;;;;;;;;;;17.80;99.90;;;;;;5016910;28;19957;-63
2021/07/13 03:32:34;;;;;;;;;;;17.80;99.90;;;;;;5037744;28;19936;-62
2021/07/13 03:35:23;;;;;;;;;;;17.80;99.90;;;;;;5049377;28;19956;-62
2021/07/13 03:38:12;;;;;;;;;;;17.80;99.90;;;;;;5048961;28;19925;-62
2021/07/13 03:41:01;;;;;;;;;;;17.90;99.90;;;;;;5061943;28;19936;-63
2021/07/13 03:43:49;;;;;;;;;;;17.80;99.90;;;;;;5063918;28;19932;-62
2021/07/13 03:46:39;;;;;;;;;;;17.70;99.90;;;;;;5056130;28;19939;-63
2021/07/13 03:49:29;;;;;;;;;;;17.70;99.90;;;;;;5071686;28;19925;-63
2021/07/13 03:52:18;;;;;;;;;;;17.60;99.90;;;;;;5067537;28;19940;-62
2021/07/13 03:55:08;;;;;;;;;;;17.50;99.90;;;;;;5067766;28;19924;-63
2021/07/13 03:57:57;;;;;;;;;;;17.50;99.90;;;;;;5063945;28;19913;-64
2021/07/13 04:00:46;;;;;;;;;;;17.50;99.90;;;;;;5064325;28;19921;-62
2021/07/13 04:03:37;;;;;;;;;;;17.50;99.90;;;;;;5072948;28;19916;-63
2021/07/13 04:06:28;;;;;;;;;;;17.40;99.90;;;;;;5040495;28;19933;-64
2021/07/13 04:09:17;;;;;;;;;;;17.40;99.90;;;;;;5045111;28;19992;-61
2021/07/13 04:12:06;;;;;;;;;;;17.40;99.90;;;;;;5048467;28;19936;-61
2021/07/13 04:14:54;;;;;;;;;;;17.50;99.90;;;;;;5047269;28;19932;-62
2021/07/13 04:17:43;;;;;;;;;;;17.50;99.90;;;;;;5043310;28;19924;-61
2021/07/13 04:20:32;;;;;;;;;;;17.40;99.90;;;;;;5039134;28;20019;-62
2021/07/13 04:23:23;;;;;;;;;;;17.50;99.90;;;;;;5046361;28;19958;-62
2021/07/13 04:26:11;;;;;;;;;;;17.50;99.90;;;;;;5051949;28;19932;-62
2021/07/13 04:29:00;;;;;;;;;;;17.50;99.90;;;;;;5045641;28;20396;-61
2021/07/13 04:31:49;;;;;;;;;;;17.50;99.90;;;;;;5022386;28;19925;-62
2021/07/13 04:35:03;;;;;;;;;;;17.50;99.90;;;;;;5047760;28;19925;-62
2021/07/13 04:37:52;;;;;;;;;;;17.50;99.90;;;;;;5052194;28;19924;-62
2021/07/13 04:40:42;;;;;;;;;;;17.50;99.90;;;;;;5050868;28;19924;-61
2021/07/13 04:43:31;;;;;;;;;;;17.50;99.90;;;;;;5051587;28;20039;-62
2021/07/13 04:46:20;;;;;;;;;;;17.60;99.90;;;;;;5044623;28;20063;-62
2021/07/13 04:49:09;;;;;;;;;;;17.60;99.90;;;;;;5052394;28;20469;-61
2021/07/13 04:51:57;;;;;;;;;;;17.60;99.90;;;;;;5045751;28;19924;-63
2021/07/13 04:54:46;;;;;;;;;;;17.70;99.90;;;;;;5049755;28;19990;-62
2021/07/13 04:57:37;;;;;;;;;;;17.70;99.90;;;;;;5050390;28;19924;-63
2021/07/13 05:00:50;;;;;;;;;;;17.70;99.90;;;;;;5043598;28;19991;-63
2021/07/13 05:03:39;;;;;;;;;;;17.80;99.90;;;;;;5048638;28;19932;-62
2021/07/13 05:06:28;;;;;;;;;;;17.80;99.90;;;;;;5047394;28;19931;-62
2021/07/13 05:09:17;;;;;;;;;;;17.80;99.90;;;;;;5048158;28;19948;-62
2021/07/13 05:12:06;;;;;;;;;;;17.90;99.90;;;;;;5049403;28;20526;-63
2021/07/13 05:14:58;;;;;;;;;;;18.00;99.90;;;;;;5052403;28;20002;-62
2021/07/13 05:17:47;;;;;;;;;;;18.10;99.90;;;;;;5049112;28;20415;-64
2021/07/13 05:20:36;;;;;;;;;;;18.20;99.90;;;;;;5047916;28;19929;-64
2021/07/13 05:23:25;;;;;;;;;;;18.40;99.90;;;;;;5050470;28;19925;-63
2021/07/13 05:26:14;;;;;;;;;;;18.50;99.90;;;;;;5051917;28;19960;-62
2021/07/13 05:29:04;;;;;;;;;;;18.70;99.90;;;;;;5051471;28;19972;-63
2021/07/13 05:32:18;;;;;;;;;;;18.90;99.90;;;;;;5043754;28;20011;-62
2021/07/13 05:35:09;;;;;;;;;;;19.10;99.90;;;;;;5033228;28;19929;-63
2021/07/13 05:37:58;;;;;;;;;;;19.20;99.90;;;;;;5040686;28;20281;-63
2021/07/13 05:40:48;;;;;;;;;;;19.20;99.90;;;;;;5045138;28;20063;-63
2021/07/13 05:43:36;;;;;;;;;;;19.20;99.90;;;;;;5056903;28;20110;-62
2021/07/13 05:46:25;;;;;;;;;;;19.20;99.90;;;;;;5042394;28;19925;-62
2021/07/13 05:49:14;;;;;;;;;;;19.30;99.90;;;;;;5023474;28;19940;-62
2021/07/13 05:52:04;;;;;;;;;;;19.40;99.90;;;;;;5049646;28;20062;-64
2021/07/13 05:54:53;;;;;;;;;;;19.50;99.90;;;;;;5055738;28;19940;-61
2021/07/13 06:00:54;;;;;;;;;;;19.70;99.90;;;;;;5042322;28;20127;-61
2021/07/13 06:03:43;;;;;;;;;;;19.80;99.90;;;;;;5059164;28;19935;-62
2021/07/13 06:06:32;;;;;;;;;;;19.90;99.90;;;;;;5052552;28;20282;-61
2021/07/13 06:09:22;;;;;;;;;;;20.00;99.90;;;;;;5038339;28;19925;-62
2021/07/13 06:12:11;;;;;;;;;;;19.90;99.90;;;;;;5046506;28;20332;-61
2021/07/13 06:15:00;;;;;;;;;;;20.20;99.90;;;;;;5036712;28;19935;-62
2021/07/13 06:17:48;;;;;;;;;;;20.50;99.90;;;;;;5049462;28;20319;-62
2021/07/13 06:20:37;;;;;;;;;;;20.90;99.90;;;;;;5049214;28;19935;-61
2021/07/13 06:23:30;;;;;;;;;;;21.00;99.90;;;;;;5037285;28;19981;-62
2021/07/13 06:26:20;;;;;;;;;;;20.80;99.90;;;;;;5028950;28;19933;-62
2021/07/13 06:29:09;;;;;;;;;;;20.90;99.90;;;;;;5051122;28;19925;-62
2021/07/13 06:32:03;;;;;;;;;;;20.60;99.90;;;;;;5032181;28;19960;-61
2021/07/13 06:34:52;;;;;;;;;;;20.60;99.90;;;;;;5053573;28;19924;-64
2021/07/13 06:37:41;;;;;;;;;;;20.60;99.90;;;;;;5045600;28;19936;-62
2021/07/13 06:40:30;;;;;;;;;;;20.70;99.90;;;;;;5053307;28;19925;-61
2021/07/13 06:43:19;;;;;;;;;;;21.00;99.90;;;;;;5054433;28;19925;-62
2021/07/13 06:46:11;;;;;;;;;;;21.30;99.90;;;;;;5047232;28;19928;-62
2021/07/13 06:49:01;;;;;;;;;;;21.90;99.90;;;;;;5052436;28;20028;-61
2021/07/13 06:51:49;;;;;;;;;;;22.10;99.90;;;;;;5052073;28;20018;-61
2021/07/13 06:54:38;;;;;;;;;;;22.50;99.90;;;;;;5053362;28;19932;-62
2021/07/13 06:57:26;;;;;;;;;;;22.90;99.90;;;;;;5047857;28;19935;-63
2021/07/13 07:00:19;;;;;;;;;;;22.80;99.90;;;;;;5047907;28;20018;-63
2021/07/13 07:03:08;;;;;;;;;;;22.80;99.90;;;;;;5048072;28;19983;-61
2021/07/13 07:05:57;;;;;;;;;;;23.80;99.90;;;;;;5045938;28;19933;-65
2021/07/13 07:08:49;;;;;;;;;;;24.50;99.90;;;;;;5052567;28;20029;-62
2021/07/13 07:11:38;;;;;;;;;;;24.40;99.90;;;;;;5055138;28;19925;-63
2021/07/13 07:14:27;;;;;;;;;;;24.80;99.90;;;;;;5054161;28;19928;-63
2021/07/13 07:17:17;;;;;;;;;;;25.20;99.90;;;;;;5047249;28;20019;-63
2021/07/13 07:20:07;;;;;;;;;;;25.70;99.90;;;;;;5051653;28;19932;-64
2021/07/13 07:22:56;;;;;;;;;;;26.00;99.90;;;;;;5052011;28;19925;-63
2021/07/13 07:25:44;;;;;;;;;;;26.10;99.90;;;;;;5051694;28;19932;-63
2021/07/13 07:28:33;;;;;;;;;;;26.30;99.90;;;;;;5053093;28;19924;-64
2021/07/13 07:31:23;;;;;;;;;;;26.20;99.90;;;;;;5044962;28;20344;-63
2021/07/13 07:34:14;;;;;;;;;;;26.80;99.90;;;;;;5063693;28;19925;-62
2021/07/13 07:37:03;;;;;;;;;;;27.60;99.90;;;;;;5066921;28;19959;-62
2021/07/13 07:39:52;;;;;;;;;;;28.10;98.70;;;;;;5054118;28;19920;-63
2021/07/13 07:42:40;;;;;;;;;;;28.40;98.20;;;;;;5063373;28;19925;-62
2021/07/13 07:45:29;;;;;;;;;;;28.70;97.40;;;;;;5050685;28;20019;-62
2021/07/13 07:48:18;;;;;;;;;;;29.20;95.70;;;;;;5064689;28;19925;-62
2021/07/13 07:51:08;;;;;;;;;;;29.70;95.40;;;;;;5038690;28;19947;-62
2021/07/13 07:53:57;;;;;;;;;;;29.40;95.30;;;;;;5013837;28;19928;-63
2021/07/13 07:56:46;;;;;;;;;;;29.90;95.70;;;;;;5030078;28;19960;-64
2021/07/13 08:02:59;;;;;;;;;;;29.60;94.00;;;;;;5047435;28;20391;-63
2021/07/13 08:05:47;;;;;;;;;;;30.20;93.50;;;;;;5025952;28;19925;-63
2021/07/13 08:08:37;;;;;;;;;;;30.00;93.50;;;;;;5036601;28;19992;-64
2021/07/13 08:11:26;;;;;;;;;;;29.60;94.30;;;;;;5023632;28;19925;-63
2021/07/13 08:14:14;;;;;;;;;;;29.20;94.70;;;;;;5032853;28;19964;-67
2021/07/13 08:17:04;;;;;;;;;;;29.50;95.00;;;;;;5026026;28;19925;-64
2021/07/13 08:20:18;;;;;;;;;;;29.20;93.90;;;;;;5032635;28;19925;-65
2021/07/13 08:23:32;;;;;;;;;;;28.50;95.70;;;;;;5031532;28;20374;-65
2021/07/13 08:26:23;;;;;;;;;;;28.80;95.60;;;;;;5031283;28;19925;-66
2021/07/13 08:29:12;;;;;;;;;;;28.40;95.20;;;;;;5044953;28;19983;-65
2021/07/13 08:32:01;;;;;;;;;;;28.90;95.80;;;;;;5040934;28;20387;-68
2021/07/13 08:34:51;;;;;;;;;;;29.50;94.00;;;;;;5042804;28;20010;-63
2021/07/13 08:37:40;;;;;;;;;;;30.70;92.50;;;;;;5020983;28;19929;-66
2021/07/13 08:40:29;;;;;;;;;;;31.20;92.30;;;;;;5032167;28;19932;-66
2021/07/13 08:43:23;;;;;;;;;;;31.20;91.40;;;;;;5022568;28;20214;-66
2021/07/13 08:46:12;;;;;;;;;;;31.00;91.30;;;;;;5018990;28;19932;-66
2021/07/13 08:49:04;;;;;;;;;;;30.70;91.50;;;;;;5034569;28;19952;-65
2021/07/13 08:51:52;;;;;;;;;;;31.30;92.20;;;;;;5024034;28;20270;-65
2021/07/13 08:54:41;;;;;;;;;;;29.90;93.40;;;;;;5031415;28;19929;-65
2021/07/13 08:57:30;;;;;;;;;;;30.60;93.40;;;;;;5030537;28;20300;-66
2021/07/13 09:00:20;;;;;;;;;;;30.90;92.70;;;;;;5034603;28;20333;-66
2021/07/13 09:03:10;;;;;;;;;;;30.80;92.30;;;;;;5021200;28;19925;-66
2021/07/13 09:06:00;;;;;;;;;;;30.10;92.50;;;;;;5042986;28;19928;-67
2021/07/13 09:08:49;;;;;;;;;;;30.60;91.50;;;;;;5029203;28;19925;-66
2021/07/13 09:11:37;;;;;;;;;;;31.60;90.00;;;;;;5028149;28;19933;-66
2021/07/13 09:14:26;;;;;;;;;;;30.30;91.50;;;;;;5030162;28;19933;-66
2021/07/13 09:17:27;;;;;;;;;;;30.00;92.30;;;;;;5024427;28;20504;-66
2021/07/13 09:20:21;;;;;;;;;;;32.90;89.80;;;;;;5025595;28;19925;-66
2021/07/13 09:23:35;;;;;;;;;;;36.10;77.20;;;;;;5033142;28;19929;-66
2021/07/13 09:26:35;;;;;;;;;;;38.60;68.80;;;;;;5029943;28;19944;-67
2021/07/13 09:29:34;;;;;;;;;;;36.20;70.20;;;;;;5031296;28;19979;-66
2021/07/13 09:32:29;;;;;;;;;;;36.50;67.30;;;;;;5023537;28;19925;-68
2021/07/13 09:35:20;;;;;;;;;;;31.40;79.10;;;;;;5048870;28;19925;-66
2021/07/13 09:38:09;;;;;;;;;;;28.60;90.60;;;;;;5048959;28;19924;-65
2021/07/13 09:41:02;;;;;;;;;;;27.70;93.30;;;;;;5045266;28;20271;-66
2021/07/13 09:43:52;;;;;;;;;;;27.50;95.20;;;;;;5045059;28;19929;-67
2021/07/13 09:46:41;;;;;;;;;;;28.10;95.90;;;;;;5030874;28;19928;-65
2021/07/13 09:49:35;;;;;;;;;;;27.50;96.10;;;;;;5031951;28;19926;-66
2021/07/13 09:52:24;;;;;;;;;;;27.50;98.10;;;;;;5027839;28;19925;-67
2021/07/13 09:55:15;;;;;;;;;;;27.50;96.90;;;;;;5033124;28;19925;-66
2021/07/13 09:58:13;;;;;;;;;;;28.00;97.40;;;;;;5039710;28;19932;-64
2021/07/13 10:01:02;;;;;;;;;;;28.30;96.20;;;;;;5014637;28;19926;-64
2021/07/13 10:03:51;;;;;;;;;;;28.30;96.40;;;;;;5022647;28;20328;-64
2021/07/13 10:06:42;;;;;;;;;;;28.20;95.50;;;;;;5028680;28;19936;-64
2021/07/13 10:09:32;;;;;;;;;;;28.20;95.70;;;;;;5036535;28;19939;-64
2021/07/13 10:12:22;;;;;;;;;;;29.00;95.30;;;;;;5047117;28;20010;-64
2021/07/13 10:15:11;;;;;;;;;;;29.30;94.80;;;;;;5036588;28;19958;-64
2021/07/13 10:18:01;;;;;;;;;;;29.90;93.60;;;;;;5036541;28;19929;-63
2021/07/13 10:20:51;;;;;;;;;;;29.70;93.70;;;;;;5045440;28;19939;-66
2021/07/13 10:23:42;;;;;;;;;;;29.70;93.90;;;;;;5054424;28;19925;-67
2021/07/13 10:26:44;;;;;;;;;;;30.40;92.90;;;;;;5054570;28;19929;-65
2021/07/13 10:29:44;;;;;;;;;;;29.80;92.70;;;;;;5054488;28;20300;-67
2021/07/13 10:32:38;;;;;;;;;;;28.70;94.30;;;;;;5040226;28;19926;-67
2021/07/13 10:35:29;;;;;;;;;;;27.40;95.70;;;;;;5044851;28;19929;-65
2021/07/13 10:38:23;;;;;;;;;;;27.30;98.20;;;;;;5035224;28;20015;-66
2021/07/13 10:41:13;;;;;;;;;;;27.20;96.20;;;;;;5031245;28;19925;-65
2021/07/13 10:44:02;;;;;;;;;;;29.40;94.60;;;;;;5026152;28;19933;-65
2021/07/13 10:47:05;;;;;;;;;;;30.30;92.70;;;;;;5016993;28;20064;-65
2021/07/13 10:50:13;;;;;;;;;;;30.00;93.30;;;;;;5033179;28;19962;-67
2021/07/13 10:53:02;;;;;;;;;;;29.80;93.50;;;;;;5026894;28;19925;-66
2021/07/13 10:55:55;;;;;;;;;;;29.30;94.00;;;;;;5026536;28;19944;-68
2021/07/13 10:58:49;;;;;;;;;;;28.60;95.20;;;;;;5028647;28;19933;-64
2021/07/13 11:01:43;;;;;;;;;;;28.00;96.30;;;;;;5027313;28;19925;-65
2021/07/13 11:04:32;;;;;;;;;;;27.60;96.70;;;;;;5028565;28;19984;-64
2021/07/13 11:07:36;;;;;;;;;;;27.00;97.60;;;;;;5040522;28;20410;-65
2021/07/13 11:10:25;;;;;;;;;;;26.90;98.40;;;;;;5028539;28;20254;-64
2021/07/13 11:13:23;;;;;;;;;;;26.50;99.10;;;;;;5038397;28;19998;-64
2021/07/13 11:16:14;;;;;;;;;;;26.20;99.90;;;;;;5027421;28;20385;-64
2021/07/13 11:19:05;;;;;;;;;;;26.10;99.90;;;;;;5030099;28;19929;-65
2021/07/13 11:21:54;;;;;;;;;;;25.90;99.90;;;;;;5031996;28;19925;-66
2021/07/13 11:24:42;;;;;;;;;;;26.00;99.80;;;;;;5037375;28;19933;-67
2021/07/13 11:27:31;;;;;;;;;;;25.90;99.90;;;;;;5047526;28;19929;-64
2021/07/13 11:30:20;;;;;;;;;;;26.10;99.90;;;;;;5034403;28;20420;-64
2021/07/13 11:33:12;;;;;;;;;;;26.10;99.60;;;;;;5037394;28;19924;-65
2021/07/13 11:36:02;;;;;;;;;;;26.30;99.90;;;;;;5034910;28;20024;-66
2021/07/13 11:38:51;;;;;;;;;;;26.30;99.90;;;;;;5036015;28;19998;-64
2021/07/13 11:41:41;;;;;;;;;;;26.10;99.90;;;;;;5049215;28;19991;-65
2021/07/13 11:44:30;;;;;;;;;;;26.10;99.90;;;;;;5051634;28;20019;-65
2021/07/13 11:47:20;;;;;;;;;;;25.90;99.90;;;;;;5037774;28;19928;-66
2021/07/13 11:50:12;;;;;;;;;;;26.00;99.90;;;;;;5039826;28;19925;-64
2021/07/13 11:53:28;;;;;;;;;;;25.70;99.90;;;;;;5039755;28;20239;-64
2021/07/13 11:56:24;;;;;;;;;;;25.80;99.90;;;;;;5032635;28;19924;-68
2021/07/13 11:59:14;;;;;;;;;;;25.70;99.90;;;;;;5036400;28;20089;-64
2021/07/13 12:02:35;;;;;;;;;;;25.90;99.90;;;;;;5034832;28;19959;-63
2021/07/13 12:05:27;;;;;;;;;;;25.90;99.90;;;;;;5041563;28;19926;-64
2021/07/13 12:08:36;;;;;;;;;;;25.90;99.90;;;;;;5023423;28;19933;-63
2021/07/13 12:11:26;;;;;;;;;;;26.00;99.90;;;;;;5034136;28;20328;-63
2021/07/13 12:14:16;;;;;;;;;;;25.80;99.90;;;;;;5034469;28;20280;-62
2021/07/13 12:17:05;;;;;;;;;;;25.70;99.90;;;;;;5023151;28;19929;-62
2021/07/13 12:20:19;;;;;;;;;;;26.10;99.90;;;;;;5036453;28;19933;-62
2021/07/13 12:23:34;;;;;;;;;;;26.20;99.90;;;;;;5029791;28;19982;-62
2021/07/13 12:26:23;;;;;;;;;;;25.80;99.90;;;;;;5033225;28;19925;-64
2021/07/13 12:29:12;;;;;;;;;;;25.40;99.90;;;;;;5041809;28;20024;-65
2021/07/13 12:32:03;;;;;;;;;;;24.90;99.90;;;;;;5019614;28;19944;-64
2021/07/13 12:34:52;;;;;;;;;;;24.60;99.90;;;;;;5042642;28;20000;-64
2021/07/13 12:37:42;;;;;;;;;;;24.40;99.90;;;;;;5058957;28;19935;-64
2021/07/13 12:40:32;;;;;;;;;;;24.40;99.90;;;;;;5050386;28;19925;-64
2021/07/13 12:43:22;;;;;;;;;;;24.20;99.90;;;;;;5035967;28;19947;-65
2021/07/13 12:46:25;;;;;;;;;;;24.20;99.90;;;;;;5031925;28;19925;-64
2021/07/13 12:49:14;;;;;;;;;;;24.10;99.90;;;;;;5033552;28;19929;-65
2021/07/13 12:52:08;;;;;;;;;;;23.80;99.90;;;;;;5038427;28;20445;-64
2021/07/13 12:54:58;;;;;;;;;;;23.70;99.90;;;;;;5040286;28;19933;-64
2021/07/13 12:57:48;;;;;;;;;;;23.50;99.90;;;;;;5034538;28;19925;-65
2021/07/13 13:00:37;;;;;;;;;;;23.50;99.90;;;;;;5032891;28;20059;-65
2021/07/13 13:03:29;;;;;;;;;;;23.70;99.90;;;;;;5048429;28;20265;-65
2021/07/13 13:06:18;;;;;;;;;;;24.00;99.90;;;;;;5040825;28;19996;-65
2021/07/13 13:09:08;;;;;;;;;;;23.90;99.90;;;;;;5038341;28;19932;-65
2021/07/13 13:12:22;;;;;;;;;;;23.70;99.90;;;;;;5045817;28;19928;-64
2021/07/13 13:15:13;;;;;;;;;;;23.70;99.90;;;;;;5039099;28;19955;-62
2021/07/13 13:18:01;;;;;;;;;;;23.70;99.90;;;;;;5043380;28;19924;-62
2021/07/13 13:20:50;;;;;;;;;;;23.80;99.90;;;;;;5045962;28;19986;-63
2021/07/13 13:23:39;;;;;;;;;;;24.00;99.90;;;;;;5037823;28;19972;-66
2021/07/13 13:26:28;;;;;;;;;;;24.20;99.90;;;;;;5045418;28;20398;-63
2021/07/13 13:29:16;;;;;;;;;;;24.20;99.90;;;;;;5041931;28;19968;-64
2021/07/13 13:32:07;;;;;;;;;;;23.80;99.90;;;;;;5034284;28;19948;-64
2021/07/13 13:34:56;;;;;;;;;;;23.70;99.90;;;;;;5042778;28;19925;-64
2021/07/13 13:37:50;;;;;;;;;;;23.60;99.90;;;;;;5050518;28;19948;-64
2021/07/13 13:40:39;;;;;;;;;;;23.60;99.90;;;;;;5050256;28;20391;-63
2021/07/13 13:43:29;;;;;;;;;;;23.30;99.90;;;;;;5053211;28;19925;-63
2021/07/13 13:46:17;;;;;;;;;;;23.00;99.90;;;;;;5043466;28;19999;-63
2021/07/13 13:49:08;;;;;;;;;;;23.00;99.90;;;;;;5031238;28;19952;-63
2021/07/13 13:51:56;;;;;;;;;;;22.90;99.90;;;;;;5045112;28;19935;-64
2021/07/13 13:54:45;;;;;;;;;;;22.70;99.90;;;;;;5039725;28;19925;-64
2021/07/13 13:57:35;;;;;;;;;;;22.50;99.90;;;;;;5052062;28;20287;-64
2021/07/13 14:00:24;;;;;;;;;;;22.30;99.90;;;;;;5034298;28;20510;-63
2021/07/13 14:03:12;;;;;;;;;;;22.10;99.90;;;;;;5053920;28;19924;-63
2021/07/13 14:06:03;;;;;;;;;;;22.00;99.90;;;;;;5055375;28;19935;-64
2021/07/13 14:08:52;;;;;;;;;;;21.90;99.90;;;;;;5041846;28;19925;-64
2021/07/13 14:11:40;;;;;;;;;;;21.60;99.90;;;;;;5045780;28;20352;-64
2021/07/13 14:14:29;;;;;;;;;;;21.30;99.90;;;;;;5056359;28;19924;-63
2021/07/13 14:17:18;;;;;;;;;;;21.00;99.90;;;;;;5036127;28;20034;-63
2021/07/13 14:20:08;;;;;;;;;;;20.60;99.90;;;;;;5047443;28;19933;-63
2021/07/13 14:22:57;;;;;;;;;;;20.30;99.90;;;;;;5045969;28;19932;-62
2021/07/13 14:25:46;;;;;;;;;;;20.10;99.90;;;;;;5046224;28;19936;-62
2021/07/13 14:28:35;;;;;;;;;;;20.10;99.90;;;;;;5045583;28;20020;-62
2021/07/13 14:31:24;;;;;;;;;;;20.10;99.90;;;;;;5051716;28;19928;-63
2021/07/13 14:34:13;;;;;;;;;;;20.00;99.90;;;;;;5043142;28;19925;-62
2021/07/13 14:37:01;;;;;;;;;;;20.00;99.90;;;;;;5042656;28;20007;-62
2021/07/13 14:39:51;;;;;;;;;;;20.00;99.90;;;;;;5047176;28;20383;-63
2021/07/13 14:42:40;;;;;;;;;;;20.00;99.90;;;;;;5034957;28;20448;-65
2021/07/13 14:45:28;;;;;;;;;;;19.80;99.90;;;;;;5032745;28;19956;-63
2021/07/13 14:48:18;;;;;;;;;;;19.60;99.90;;;;;;5051763;28;20016;-63
2021/07/13 14:51:07;;;;;;;;;;;19.40;99.90;;;;;;5050027;28;19925;-65
2021/07/13 14:53:55;;;;;;;;;;;18.90;99.90;;;;;;5048980;28;19925;-63
2021/07/13 14:56:45;;;;;;;;;;;18.60;99.90;;;;;;5042228;28;20059;-64
2021/07/13 14:59:40;;;;;;;;;;;18.50;99.90;;;;;;5044803;28;19994;-62
2021/07/13 15:02:30;;;;;;;;;;;18.40;99.90;;;;;;5043177;28;19925;-63
2021/07/13 15:05:18;;;;;;;;;;;18.40;99.90;;;;;;5035704;28;19988;-62
2021/07/13 15:08:07;;;;;;;;;;;18.40;99.90;;;;;;5038553;28;20265;-63
2021/07/13 15:10:56;;;;;;;;;;;18.20;99.90;;;;;;5042700;28;19925;-64
2021/07/13 15:13:46;;;;;;;;;;;18.10;99.90;;;;;;5040807;28;19932;-64
2021/07/13 15:16:40;;;;;;;;;;;18.00;99.90;;;;;;5033244;28;20349;-64
2021/07/13 15:19:30;;;;;;;;;;;17.90;99.90;;;;;;5040624;28;20075;-63
2021/07/13 15:22:22;;;;;;;;;;;17.80;99.90;;;;;;5033841;28;19932;-63
2021/07/13 15:25:12;;;;;;;;;;;17.70;99.90;;;;;;5034496;28;19933;-63
2021/07/13 15:28:00;;;;;;;;;;;17.60;99.90;;;;;;5035407;28;20433;-64
2021/07/13 15:30:51;;;;;;;;;;;17.50;99.90;;;;;;5020559;28;20357;-63
2021/07/13 15:33:39;;;;;;;;;;;17.40;99.90;;;;;;5036379;28;20322;-64
2021/07/13 15:36:29;;;;;;;;;;;17.30;99.90;;;;;;5035443;28;19980;-63
2021/07/13 15:39:17;;;;;;;;;;;17.00;99.90;;;;;;5035082;28;19934;-63
2021/07/13 15:42:06;;;;;;;;;;;17.00;99.90;;;;;;5034550;28;19925;-63
2021/07/13 15:48:08;;;;;;;;;;;16.80;99.90;;;;;;5021858;28;19939;-63
2021/07/13 15:50:57;;;;;;;;;;;16.60;99.90;;;;;;5017358;28;19984;-63
2021/07/13 15:53:46;;;;;;;;;;;16.60;99.90;;;;;;4996047;28;19933;-64
2021/07/13 15:56:35;;;;;;;;;;;16.60;99.90;;;;;;5024718;28;20047;-64
2021/07/13 15:59:26;;;;;;;;;;;16.50;99.90;;;;;;5038298;28;20044;-64
2021/07/13 16:02:39;;;;;;;;;;;16.50;99.90;;;;;;5031142;28;19933;-64
2021/07/13 16:05:29;;;;;;;;;;;16.50;99.90;;;;;;5013221;28;19929;-64
2021/07/13 16:08:19;;;;;;;;;;;16.50;99.90;;;;;;5038677;28;20328;-63
2021/07/13 16:11:07;;;;;;;;;;;16.40;99.90;;;;;;5023192;28;20080;-63
2021/07/13 16:13:57;;;;;;;;;;;16.30;99.90;;;;;;5027513;28;19929;-64
2021/07/13 16:16:46;;;;;;;;;;;16.30;99.90;;;;;;5019092;28;20304;-63
2021/07/13 16:19:35;;;;;;;;;;;16.30;99.90;;;;;;5017030;28;20004;-63
2021/07/13 16:22:26;;;;;;;;;;;16.20;99.90;;;;;;5038681;28;19925;-62
2021/07/13 16:25:15;;;;;;;;;;;16.20;99.90;;;;;;5027214;28;19925;-63
2021/07/13 16:28:04;;;;;;;;;;;16.20;99.90;;;;;;5030813;28;19956;-63
2021/07/13 16:30:54;;;;;;;;;;;16.20;99.90;;;;;;5030287;28;20006;-63
2021/07/13 16:33:45;;;;;;;;;;;16.20;99.90;;;;;;5040802;28;19924;-63
2021/07/13 16:36:36;;;;;;;;;;;16.10;99.90;;;;;;5044353;28;20594;-66
2021/07/13 16:39:26;;;;;;;;;;;16.10;99.90;;;;;;5051815;28;19942;-63
2021/07/13 16:42:14;;;;;;;;;;;16.10;99.90;;;;;;5044213;28;19929;-62
2021/07/13 16:45:03;;;;;;;;;;;16.10;99.90;;;;;;5044626;28;19928;-63
2021/07/13 16:47:53;;;;;;;;;;;16.10;99.90;;;;;;5047536;28;19971;-63